createdAt,value
2022-09-21T00:01:27.223Z,66
2022-09-21T00:16:27.177Z,67
2022-09-21T00:31:27.182Z,67
2022-09-21T00:46:27.054Z,67
2022-09-21T01:01:27.149Z,68
2022-09-21T01:16:27.075Z,68
2022-09-21T01:31:27.067Z,70
2022-09-21T01:46:26.936Z,70
2022-09-21T02:01:26.963Z,70
2022-09-21T02:16:26.933Z,71
2022-09-21T02:31:27.004Z,71
2022-09-21T02:46:26.903Z,71
2022-09-21T03:01:26.889Z,72
2022-09-21T03:16:26.836Z,73
2022-09-21T03:31:26.937Z,73
2022-09-21T03:46:26.917Z,73
2022-09-21T04:01:26.793Z,74
2022-09-21T04:16:26.761Z,74
2022-09-21T04:31:26.817Z,75
2022-09-21T04:46:26.831Z,75
2022-09-21T05:01:26.772Z,75
2022-09-21T05:16:26.691Z,75
2022-09-21T05:31:26.740Z,76
2022-09-21T05:46:26.722Z,76
2022-09-21T06:01:26.771Z,77
2022-09-21T06:16:26.718Z,79
2022-09-21T06:31:26.639Z,76
2022-09-21T06:46:26.579Z,71
2022-09-21T07:01:26.782Z,66
2022-09-21T07:16:26.544Z,62
2022-09-21T07:31:26.576Z,59
2022-09-21T07:46:26.476Z,56
2022-09-21T08:01:26.561Z,54
2022-09-21T08:16:26.536Z,53
2022-09-21T08:31:26.508Z,52
2022-09-21T08:46:26.486Z,53
2022-09-21T09:01:26.464Z,53
2022-09-21T09:16:26.396Z,51
2022-09-21T09:31:26.420Z,51
2022-09-21T09:46:26.340Z,53
2022-09-21T10:01:26.350Z,54
2022-09-21T10:16:26.243Z,55
2022-09-21T10:31:26.282Z,54
2022-09-21T10:46:26.216Z,54
2022-09-21T11:01:26.246Z,51
2022-09-21T11:16:26.126Z,48
2022-09-21T11:31:26.173Z,48
2022-09-21T11:46:26.178Z,50
2022-09-21T12:01:26.069Z,50
2022-09-21T12:16:26.101Z,50
2022-09-21T12:31:26.014Z,52
2022-09-21T12:46:26.063Z,53
2022-09-21T13:01:26.142Z,53
2022-09-21T13:16:25.975Z,53
2022-09-21T13:31:39.987Z,53
2022-09-21T13:46:25.891Z,53
2022-09-21T14:01:45.708Z,53
2022-09-21T14:16:25.896Z,53
2022-09-21T14:31:25.856Z,53
2022-09-21T14:46:25.815Z,53
2022-09-21T15:01:25.781Z,53
2022-09-21T15:16:25.796Z,53
2022-09-21T15:31:25.775Z,53
2022-09-21T15:46:25.723Z,53
2022-09-21T16:01:25.667Z,53
2022-09-21T16:16:25.634Z,53
2022-09-21T16:31:25.636Z,53
2022-09-21T16:46:25.608Z,53
2022-09-21T17:01:25.680Z,54
2022-09-21T17:16:25.558Z,54
2022-09-21T17:31:25.510Z,55
2022-09-21T17:46:25.528Z,55
2022-09-21T18:01:25.477Z,56
2022-09-21T18:16:25.487Z,56
2022-09-21T18:31:25.425Z,57
2022-09-21T18:46:25.437Z,57
2022-09-21T19:01:25.433Z,58
2022-09-21T19:16:25.350Z,58
2022-09-21T19:31:25.367Z,59
2022-09-21T19:46:25.426Z,60
2022-09-21T20:01:25.276Z,62
2022-09-21T20:16:25.266Z,63
2022-09-21T20:31:25.321Z,64
2022-09-21T20:46:25.212Z,65
2022-09-21T21:01:25.230Z,65
2022-09-21T21:16:25.146Z,65
2022-09-21T21:31:25.206Z,65
2022-09-21T21:46:25.145Z,66
2022-09-21T22:01:25.119Z,67
2022-09-21T22:16:25.140Z,67
2022-09-21T22:31:25.072Z,67
2022-09-21T22:46:24.983Z,68
2022-09-21T23:01:25.164Z,69
2022-09-21T23:16:24.966Z,70
2022-09-21T23:31:25.010Z,70
2022-09-21T23:46:24.956Z,71
